Time;durP1;ratioP1;P1;durP2;ratioP2;P2;SDS_P1;SDS_P2;PMS_P1;PMS_P2;Temp;Humidity;BMP_temperature;BMP_pressure;BME280_temperature;BME280_humidity;BME280_pressure;Samples;Min_cycle;Max_cycle;Signal;HPM_P1;HPM_P2
2023/03/11 00:01:26;;;;;;;7.50;4.72;;;;;;;-0.55;87.62;99078.22;10408299;28;20045;-81
2023/03/11 00:06:30;;;;;;;7.50;4.93;;;;;;;-0.67;88.35;99085.94;10397968;28;20105;-81
2023/03/11 00:11:33;;;;;;;9.23;4.55;;;;;;;-0.63;87.19;99084.81;10418282;28;20033;-80
2023/03/11 00:16:36;;;;;;;9.00;4.55;;;;;;;-0.75;87.46;99102.19;10423281;28;20461;-81
2023/03/11 00:21:41;;;;;;;7.80;4.60;;;;;;;-0.74;87.68;99110.03;10432373;28;20041;-81
2023/03/11 00:26:43;;;;;;;6.25;3.80;;;;;;;-0.79;87.77;99130.50;10429925;28;20041;-80
2023/03/11 00:31:46;;;;;;;7.53;4.45;;;;;;;-0.98;88.36;99138.56;10404345;28;20087;-81
2023/03/11 00:36:50;;;;;;;6.20;4.32;;;;;;;-0.73;87.41;99153.91;10400800;28;20492;-81
2023/03/11 00:41:55;;;;;;;9.98;4.63;;;;;;;-0.83;87.42;99165.88;10396036;28;20045;-81
2023/03/11 00:46:58;;;;;;;9.68;4.50;;;;;;;-1.03;87.97;99174.84;10406325;28;20037;-81
2023/03/11 00:52:02;;;;;;;7.97;4.82;;;;;;;-1.10;88.16;99206.88;10399472;28;20073;-81
2023/03/11 00:57:05;;;;;;;8.35;4.50;;;;;;;-0.79;87.26;99196.44;10403952;28;20042;-80
2023/03/11 01:02:08;;;;;;;6.20;4.15;;;;;;;-0.78;87.44;99211.31;10424115;28;20207;-81
2023/03/11 01:07:13;;;;;;;10.13;3.85;;;;;;;-0.76;86.38;99221.78;10410524;28;20045;-80
2023/03/11 01:12:16;;;;;;;8.35;4.05;;;;;;;-0.80;87.19;99225.50;10407897;28;20064;-81
2023/03/11 01:17:20;;;;;;;7.38;4.10;;;;;;;-1.16;87.52;99250.22;10401171;28;20050;-81
2023/03/11 01:22:25;;;;;;;7.45;4.05;;;;;;;-1.03;86.48;99247.81;10399047;28;20038;-80
2023/03/11 01:27:28;;;;;;;6.93;4.72;;;;;;;-0.55;85.96;99247.03;10408405;28;20060;-81
2023/03/11 01:32:31;;;;;;;8.25;4.20;;;;;;;-1.00;86.55;99242.38;10402537;28;20049;-83
2023/03/11 01:37:35;;;;;;;8.25;4.25;;;;;;;-0.90;87.10;99262.06;10404911;28;20033;-80
2023/03/11 01:42:38;;;;;;;9.50;4.75;;;;;;;-1.18;86.76;99268.75;10394205;28;20115;-81
2023/03/11 01:47:41;;;;;;;8.85;4.35;;;;;;;-0.68;86.38;99279.41;10413784;28;20049;-81
2023/03/11 01:52:47;;;;;;;7.57;4.82;;;;;;;-0.88;86.23;99283.06;10405032;28;20042;-80
2023/03/11 01:57:53;;;;;;;8.57;4.82;;;;;;;-0.84;85.50;99293.38;10412904;28;20049;-80
2023/03/11 02:03:01;;;;;;;14.80;4.82;;;;;;;-0.97;85.18;99294.94;10430987;28;20041;-82
2023/03/11 02:08:07;;;;;;;12.30;5.55;;;;;;;-0.64;84.89;99294.13;10403268;28;20523;-81
2023/03/11 02:13:10;;;;;;;12.35;5.97;;;;;;;-0.87;86.92;99313.78;10405989;28;20042;-82
2023/03/11 02:18:17;;;;;;;11.15;7.03;;;;;;;-0.76;85.45;99312.31;10406282;28;20080;-81
2023/03/11 02:23:28;;;;;;;14.85;7.78;;;;;;;-0.46;84.85;99306.38;10402291;28;20468;-82
2023/03/11 02:28:35;;;;;;;12.70;6.73;;;;;;;-0.86;86.16;99313.69;10405378;28;20037;-82
2023/03/11 02:33:39;;;;;;;12.15;6.10;;;;;;;-0.93;85.56;99308.81;10435545;28;20087;-82
2023/03/11 02:38:42;;;;;;;11.43;6.72;;;;;;;-1.02;86.90;99310.97;10413113;28;20551;-81
2023/03/11 02:43:48;;;;;;;15.35;6.95;;;;;;;-0.68;85.31;99316.34;10428407;28;20120;-80
2023/03/11 02:48:54;;;;;;;16.70;7.53;;;;;;;-1.33;86.13;99316.94;10410460;28;20060;-81
2023/03/11 02:54:02;;;;;;;15.02;6.40;;;;;;;-0.75;84.73;99324.53;10430725;28;20045;-81
2023/03/11 02:59:07;;;;;;;11.00;6.05;;;;;;;-1.10;85.15;99322.84;10424130;28;20044;-79
2023/03/11 03:04:11;;;;;;;13.27;5.60;;;;;;;-1.27;84.76;99321.88;10437422;28;20047;-80
2023/03/11 03:09:14;;;;;;;11.30;5.40;;;;;;;-0.90;83.88;99337.69;10403098;28;20041;-80
2023/03/11 03:14:19;;;;;;;11.73;6.35;;;;;;;-1.09;84.14;99349.13;10415634;28;20056;-79
2023/03/11 03:19:23;;;;;;;10.95;4.95;;;;;;;-0.81;84.20;99361.78;10419997;28;20061;-79
2023/03/11 03:24:28;;;;;;;16.30;5.93;;;;;;;-0.59;83.36;99368.59;10427759;28;20049;-81
2023/03/11 03:29:32;;;;;;;11.90;5.10;;;;;;;-0.84;83.55;99372.47;10426142;28;20131;-79
2023/03/11 03:34:35;;;;;;;10.55;5.07;;;;;;;-1.04;83.69;99375.25;10429083;28;20041;-80
2023/03/11 03:39:38;;;;;;;14.50;5.32;;;;;;;-0.84;83.97;99390.94;10432932;28;20052;-80
2023/03/11 03:44:44;;;;;;;12.90;5.10;;;;;;;-0.87;83.53;99396.38;10465618;28;20036;-80
2023/03/11 03:49:47;;;;;;;16.20;6.55;;;;;;;-0.54;82.83;99417.56;10428778;28;20033;-79
2023/03/11 03:54:50;;;;;;;12.30;5.35;;;;;;;-0.47;82.31;99420.72;10419682;28;20046;-80
2023/03/11 03:59:54;;;;;;;10.93;5.43;;;;;;;-0.64;82.91;99431.28;10411138;28;20049;-80
2023/03/11 04:04:57;;;;;;;10.85;4.95;;;;;;;-0.54;82.17;99428.13;10439981;28;20037;-81
2023/03/11 04:10:01;;;;;;;9.98;5.15;;;;;;;-0.62;81.83;99432.94;10405166;28;20124;-80
2023/03/11 04:15:09;;;;;;;8.60;5.10;;;;;;;-1.02;83.80;99436.66;10423252;28;20056;-79
2023/03/11 04:20:13;;;;;;;15.27;5.72;;;;;;;-0.92;82.42;99439.72;10417218;28;20053;-80
2023/03/11 04:25:19;;;;;;;16.88;5.45;;;;;;;-1.05;83.03;99442.06;10435060;28;20099;-80
2023/03/11 04:30:24;;;;;;;11.77;4.90;;;;;;;-0.85;82.52;99449.00;10427284;28;20071;-79
2023/03/11 04:35:31;;;;;;;9.95;5.05;;;;;;;-1.14;83.42;99455.72;10455868;23;20076;-77
2023/03/11 04:40:34;;;;;;;11.90;5.53;;;;;;;-1.08;83.48;99456.25;10409224;28;20056;-77
2023/03/11 04:45:40;;;;;;;16.92;4.68;;;;;;;-1.47;83.31;99466.91;10402391;28;20046;-77
2023/03/11 04:50:43;;;;;;;15.40;4.88;;;;;;;-1.48;83.74;99481.84;10378467;28;20045;-77
2023/03/11 04:55:47;;;;;;;12.32;4.15;;;;;;;-0.72;81.83;99485.25;10407329;28;20030;-77
2023/03/11 05:00:52;;;;;;;11.88;4.50;;;;;;;-1.02;82.16;99497.28;10395005;28;20124;-77
2023/03/11 05:05:56;;;;;;;11.27;4.43;;;;;;;-1.50;82.20;99504.78;10401279;28;20131;-77
2023/03/11 05:10:59;;;;;;;8.60;3.55;;;;;;;-1.52;81.75;99503.97;10414056;28;20053;-76
2023/03/11 05:16:05;;;;;;;14.30;3.30;;;;;;;-1.36;81.46;99504.13;10407846;28;20042;-78
2023/03/11 05:21:09;;;;;;;13.85;2.28;;;;;;;-1.52;80.74;99514.50;10394023;28;20042;-76
2023/03/11 05:26:12;;;;;;;5.10;2.45;;;;;;;-1.64;81.16;99515.94;10381553;28;20049;-77
2023/03/11 05:31:19;;;;;;;10.10;2.65;;;;;;;-1.77;81.75;99519.16;10380405;28;20041;-76
2023/03/11 05:36:22;;;;;;;9.52;2.30;;;;;;;-1.44;79.89;99524.72;10384394;28;20062;-77
2023/03/11 05:41:25;;;;;;;10.27;2.40;;;;;;;-1.40;79.79;99528.91;10374901;28;20077;-78
2023/03/11 05:46:29;;;;;;;7.30;2.38;;;;;;;-1.85;80.57;99535.28;10384267;28;20517;-76
2023/03/11 05:51:33;;;;;;;10.32;2.20;;;;;;;-1.80;80.26;99549.13;10374252;28;20046;-76
2023/03/11 05:56:36;;;;;;;9.20;2.25;;;;;;;-1.90;80.25;99553.91;10392550;28;20097;-76
2023/03/11 06:01:41;;;;;;;7.55;2.15;;;;;;;-1.97;81.59;99560.38;10368637;28;20069;-76
2023/03/11 06:06:45;;;;;;;13.32;2.92;;;;;;;-1.61;80.50;99572.88;10380761;28;20053;-76
2023/03/11 06:11:50;;;;;;;5.40;2.55;;;;;;;-1.84;81.91;99571.22;10369408;28;20041;-77
2023/03/11 06:16:57;;;;;;;7.32;3.08;;;;;;;-1.26;80.78;99587.13;10371794;28;20477;-77
2023/03/11 06:22:00;;;;;;;14.40;2.47;;;;;;;-1.29;79.86;99581.13;10374063;28;20408;-76
2023/03/11 06:27:04;;;;;;;8.23;2.20;;;;;;;-1.74;80.38;99580.44;10370151;28;20072;-76
2023/03/11 06:32:09;;;;;;;7.60;2.60;;;;;;;-1.23;79.51;99608.06;10373137;28;20368;-77
2023/03/11 06:37:11;;;;;;;8.07;1.75;;;;;;;-1.94;79.89;99614.66;10370124;28;20053;-77
2023/03/11 06:42:14;;;;;;;7.13;2.38;;;;;;;-1.25;78.58;99622.22;10370203;28;20128;-76
2023/03/11 06:47:20;;;;;;;3.63;1.75;;;;;;;-1.62;78.91;99629.97;10394211;28;20029;-77
2023/03/11 06:52:24;;;;;;;6.07;2.00;;;;;;;-1.37;78.06;99630.66;10378923;28;20060;-76
2023/03/11 06:57:28;;;;;;;3.40;1.50;;;;;;;-1.48;78.26;99636.38;10368726;28;20069;-77
2023/03/11 07:02:34;;;;;;;6.05;1.92;;;;;;;-1.21;77.70;99647.50;10376900;28;20057;-77
2023/03/11 07:07:37;;;;;;;7.55;1.88;;;;;;;-1.17;77.24;99665.75;10376757;28;20060;-77
2023/03/11 07:12:40;;;;;;;3.65;1.80;;;;;;;-1.28;76.64;99659.25;10397949;28;20038;-76
2023/03/11 07:17:45;;;;;;;11.98;1.63;;;;;;;-1.07;76.21;99675.88;10377822;28;20042;-77
2023/03/11 07:22:48;;;;;;;9.23;1.60;;;;;;;-1.18;75.15;99668.44;10377764;28;20091;-77
2023/03/11 07:27:50;;;;;;;6.25;1.10;;;;;;;-1.34;75.38;99685.84;10407108;28;20560;-77
2023/03/11 07:32:54;;;;;;;13.68;2.80;;;;;;;-1.12;76.16;99691.94;10373566;28;20137;-77
2023/03/11 07:37:57;;;;;;;7.25;1.77;;;;;;;-0.93;73.98;99702.53;10390482;28;20053;-77
2023/03/11 07:43:00;;;;;;;7.25;1.42;;;;;;;-0.85;74.62;99715.34;10396127;28;20067;-77
2023/03/11 07:48:05;;;;;;;4.45;1.35;;;;;;;-0.13;72.81;99730.53;10394720;28;20045;-78
2023/03/11 07:53:08;;;;;;;4.68;1.45;;;;;;;-0.59;72.90;99735.28;10393516;28;20042;-78
2023/03/11 07:58:11;;;;;;;3.83;1.30;;;;;;;0.02;72.68;99750.06;10360354;28;20121;-78
2023/03/11 08:03:15;;;;;;;9.65;1.73;;;;;;;0.32;71.88;99763.56;10357470;28;20052;-77
2023/03/11 08:08:18;;;;;;;6.93;1.45;;;;;;;0.57;70.31;99768.50;10350280;28;20053;-77
2023/03/11 08:13:21;;;;;;;5.90;1.65;;;;;;;0.29;70.90;99771.66;10372291;28;20069;-78
2023/03/11 08:18:25;;;;;;;9.68;1.63;;;;;;;0.20;69.85;99774.75;10331010;28;20041;-77
2023/03/11 08:23:28;;;;;;;3.42;1.20;;;;;;;0.28;70.02;99786.66;10353069;28;20069;-77
2023/03/11 08:28:31;;;;;;;4.03;1.33;;;;;;;0.78;70.40;99793.88;10369015;28;20045;-77
2023/03/11 08:33:35;;;;;;;3.70;1.17;;;;;;;0.89;68.61;99788.06;10357961;28;20115;-77
2023/03/11 08:38:38;;;;;;;8.88;1.50;;;;;;;1.34;70.37;99797.22;10349669;28;21309;-78
2023/03/11 08:43:41;;;;;;;3.40;1.40;;;;;;;1.27;69.40;99798.47;10360677;28;20056;-78
2023/03/11 08:48:46;;;;;;;4.82;1.52;;;;;;;0.80;68.27;99807.91;10370864;28;20054;-80
2023/03/11 08:53:48;;;;;;;5.75;1.38;;;;;;;1.10;68.58;99806.41;10351496;28;20048;-79
2023/03/11 08:58:51;;;;;;;4.40;1.42;;;;;;;2.13;73.08;99812.41;10363000;28;20093;-79
2023/03/11 09:03:56;;;;;;;4.90;1.38;;;;;;;2.37;70.63;99826.97;10352044;28;20060;-79
2023/03/11 09:08:59;;;;;;;4.13;1.25;;;;;;;2.26;71.04;99832.00;10364819;28;20096;-79
2023/03/11 09:14:01;;;;;;;6.47;1.67;;;;;;;1.72;66.72;99828.75;10357866;28;20112;-81
2023/03/11 09:19:06;;;;;;;5.13;1.73;;;;;;;2.77;66.61;99837.13;10375815;28;20152;-82
2023/03/11 09:24:09;;;;;;;4.32;1.10;;;;;;;2.08;63.16;99847.09;10368376;28;20054;-80
2023/03/11 09:29:12;;;;;;;7.43;1.27;;;;;;;2.16;65.03;99854.63;10378612;28;20059;-81
2023/03/11 09:34:16;;;;;;;5.88;1.15;;;;;;;2.92;63.33;99854.81;10356772;28;20074;-81
2023/03/11 09:39:19;;;;;;;5.13;1.70;;;;;;;3.56;64.15;99844.00;10357810;28;20100;-80
2023/03/11 09:44:28;;;;;;;5.53;1.20;;;;;;;3.55;64.28;99842.31;10352093;28;20172;-81
2023/03/11 09:49:45;;;;;;;6.68;1.20;;;;;;;3.45;61.73;99842.00;10347570;28;20080;-80
2023/03/11 09:54:52;;;;;;;8.63;1.90;;;;;;;3.96;62.85;99842.41;10351002;28;20061;-81
2023/03/11 09:59:56;;;;;;;5.93;1.35;;;;;;;4.60;61.05;99846.28;10354781;28;20096;-80
2023/03/11 10:05:06;;;;;;;3.40;1.27;;;;;;;5.02;58.96;99844.50;10341653;28;20049;-80
2023/03/11 10:10:14;;;;;;;5.10;1.10;;;;;;;4.53;59.42;99858.31;10345194;28;20054;-79
2023/03/11 10:15:24;;;;;;;8.48;1.90;;;;;;;5.13;62.26;99862.41;10365056;28;20526;-79
2023/03/11 10:20:37;;;;;;;5.10;1.10;;;;;;;5.38;57.19;99866.94;10360242;28;20050;-79
2023/03/11 10:25:52;;;;;;;4.47;1.08;;;;;;;5.76;59.65;99862.59;10354729;28;20049;-78
2023/03/11 10:31:01;;;;;;;6.47;1.40;;;;;;;5.73;61.67;99864.53;10370548;28;20147;-78
2023/03/11 10:36:10;;;;;;;7.88;1.63;;;;;;;6.40;58.62;99874.91;10347983;28;20113;-77
2023/03/11 10:41:18;;;;;;;6.90;1.05;;;;;;;5.40;54.09;99888.13;10374794;28;20077;-78
2023/03/11 10:46:25;;;;;;;5.03;1.45;;;;;;;5.94;55.06;99885.31;10366983;28;20057;-78
2023/03/11 10:51:34;;;;;;;6.00;1.30;;;;;;;4.80;55.36;99894.69;10354261;28;20515;-78
2023/03/11 10:56:39;;;;;;;4.63;1.48;;;;;;;4.40;56.79;99907.91;10357658;28;20045;-78
2023/03/11 11:01:54;;;;;;;9.57;1.67;;;;;;;4.59;57.92;99895.16;10356480;28;20810;-78
2023/03/11 11:06:59;;;;;;;2.42;0.98;;;;;;;6.20;52.46;99893.28;10343134;28;20159;-77
2023/03/11 11:12:05;;;;;;;2.88;0.90;;;;;;;8.72;53.24;99888.50;10356070;28;20074;-78
2023/03/11 11:17:19;;;;;;;5.88;1.08;;;;;;;6.79;45.85;99901.50;10353501;28;20061;-77
2023/03/11 11:22:25;;;;;;;3.92;1.25;;;;;;;9.00;51.69;99893.31;10374645;28;20075;-77
2023/03/11 11:27:28;;;;;;;6.07;1.55;;;;;;;7.62;54.87;99898.84;10385704;28;20046;-77
2023/03/11 11:32:31;;;;;;;4.65;1.30;;;;;;;6.39;51.30;99899.91;10375880;28;20050;-78
2023/03/11 11:37:38;;;;;;;4.93;1.00;;;;;;;6.02;54.21;99898.13;10367168;28;21154;-78
2023/03/11 11:42:46;;;;;;;3.78;1.58;;;;;;;4.94;55.13;99901.81;10376833;28;20436;-77
2023/03/11 11:47:54;;;;;;;5.80;1.25;;;;;;;7.77;52.32;99894.16;10371410;28;20508;-79
2023/03/11 11:53:07;;;;;;;7.22;1.17;;;;;;;6.70;49.55;99896.84;10352175;28;20532;-80
2023/03/11 11:58:12;;;;;;;5.75;1.08;;;;;;;6.42;49.60;99895.28;10352991;28;20100;-78
2023/03/11 12:03:37;;;;;;;3.95;1.42;;;;;;;6.57;57.00;99900.38;10367980;28;20566;-78
2023/03/11 12:08:51;;;;;;;5.68;1.60;;;;;;;5.06;51.48;99893.03;10364285;28;20050;-78
2023/03/11 12:14:04;;;;;;;8.20;1.40;;;;;;;5.92;50.68;99896.09;10354011;28;21178;-78
2023/03/11 12:19:17;;;;;;;5.78;1.30;;;;;;;7.20;49.49;99898.47;10357218;28;20073;-79
2023/03/11 12:24:37;;;;;;;3.05;0.80;;;;;;;7.02;46.56;99890.03;10362772;28;20049;-79
2023/03/11 12:29:44;;;;;;;8.65;1.23;;;;;;;6.89;46.91;99909.72;10358875;28;20049;-78
2023/03/11 12:34:47;;;;;;;2.00;0.90;;;;;;;5.78;53.23;99904.16;10335856;28;20124;-79
2023/03/11 12:39:52;;;;;;;3.72;1.15;;;;;;;6.25;48.46;99896.47;10365462;28;20061;-79
2023/03/11 12:45:14;;;;;;;5.80;1.13;;;;;;;5.39;48.68;99897.94;10372967;28;20140;-78
2023/03/11 12:50:38;;;;;;;;;;;;;;;6.06;48.09;99896.91;10377288;28;20125;-79
2023/03/11 12:56:02;;;;;;;3.95;0.80;;;;;;;5.23;49.21;99905.25;10358787;28;19925;-79
2023/03/11 13:01:39;;;;;;;6.40;1.45;;;;;;;6.09;50.71;99900.25;10335544;28;21228;-78
2023/03/11 13:07:04;;;;;;;1.05;0.70;;;;;;;7.36;44.43;99903.53;10339380;28;20501;-80
2023/03/11 13:12:37;;;;;;;1.50;0.77;;;;;;;9.45;40.85;99894.97;10329937;28;20069;-80
2023/03/11 13:17:41;;;;;;;;;;;;;;;9.12;39.14;99898.63;10366137;28;20046;-78
2023/03/11 13:23:09;;;;;;;2.90;0.95;;;;;;;10.59;37.65;99897.63;10351061;28;20501;-78
2023/03/11 13:28:30;;;;;;;2.25;0.70;;;;;;;10.39;37.69;99909.25;10312473;28;20060;-79
2023/03/11 13:33:48;;;;;;;3.90;1.13;;;;;;;10.50;40.38;99908.31;10357182;28;20104;-78
2023/03/11 13:39:20;;;;;;;6.55;1.25;;;;;;;10.52;39.85;99911.72;10354906;28;20463;-79
2023/03/11 13:44:29;;;;;;;2.78;1.10;;;;;;;10.54;42.86;99913.28;10374449;28;20120;-80
2023/03/11 13:49:40;;;;;;;3.28;1.10;;;;;;;10.53;36.83;99908.03;10357829;28;21131;-79
2023/03/11 13:54:47;;;;;;;5.65;0.93;;;;;;;8.68;41.58;99919.19;10363223;28;20041;-79
2023/03/11 13:59:53;;;;;;;6.32;1.20;;;;;;;9.31;41.60;99925.59;10358975;28;20042;-79
2023/03/11 14:05:02;;;;;;;5.93;1.27;;;;;;;11.05;39.01;99920.38;10334599;28;20701;-78
2023/03/11 14:10:32;;;;;;;2.97;1.35;;;;;;;12.53;36.70;99918.28;10345845;28;20409;-77
2023/03/11 14:15:43;;;;;;;5.47;1.10;;;;;;;10.76;39.42;99931.03;10312126;28;20050;-79
2023/03/11 14:20:48;;;;;;;3.92;1.35;;;;;;;12.01;36.71;99925.88;10357793;28;20051;-79
2023/03/11 14:25:59;;;;;;;10.30;1.77;;;;;;;9.72;42.36;99945.41;10365148;28;20057;-79
2023/03/11 14:31:04;;;;;;;2.30;0.93;;;;;;;7.79;41.48;99950.19;10363734;28;20045;-78
2023/03/11 14:36:14;;;;;;;2.72;0.77;;;;;;;9.37;40.03;99945.69;10366374;28;20050;-78
2023/03/11 14:41:17;;;;;;;4.28;1.20;;;;;;;10.96;38.09;99940.00;10363554;28;20053;-78
2023/03/11 14:46:24;;;;;;;3.17;1.58;;;;;;;10.75;38.04;99955.34;10361875;28;20056;-78
2023/03/11 14:51:33;;;;;;;4.25;1.27;;;;;;;10.27;39.18;99966.72;10346218;28;20054;-78
2023/03/11 14:56:41;;;;;;;4.20;1.02;;;;;;;10.38;37.72;99956.75;10369476;28;20416;-77
2023/03/11 15:01:46;;;;;;;2.78;1.10;;;;;;;8.46;42.67;99968.22;10348870;28;20053;-78
2023/03/11 15:06:50;;;;;;;2.50;1.00;;;;;;;8.47;41.63;99954.72;10331499;28;20051;-78
2023/03/11 15:11:56;;;;;;;3.90;0.60;;;;;;;9.13;41.14;99949.41;10325984;28;20041;-79
2023/03/11 15:17:10;;;;;;;2.90;0.77;;;;;;;5.87;44.35;99956.88;10359592;28;20052;-77
2023/03/11 15:22:35;;;;;;;2.47;0.80;;;;;;;6.18;44.39;99960.09;10371475;28;20050;-78
2023/03/11 15:27:39;;;;;;;6.32;0.80;;;;;;;6.81;43.04;99951.16;10351706;28;20052;-78
2023/03/11 15:32:42;;;;;;;5.53;0.95;;;;;;;8.14;43.25;99944.81;10362933;28;20049;-79
2023/03/11 15:37:47;;;;;;;3.38;0.73;;;;;;;7.52;41.50;99948.66;10358738;28;20072;-77
2023/03/11 15:43:19;;;;;;;2.85;0.82;;;;;;;7.09;42.82;99949.16;10339457;28;20055;-76
2023/03/11 15:48:23;;;;;;;2.50;0.98;;;;;;;7.63;43.00;99942.50;10377069;28;20087;-76
2023/03/11 15:53:29;;;;;;;2.22;0.90;;;;;;;7.77;41.58;99952.16;10362811;28;20129;-77
2023/03/11 15:58:32;;;;;;;2.03;0.70;;;;;;;6.99;41.52;99948.13;10359926;28;20049;-77
2023/03/11 16:03:35;;;;;;;2.80;0.55;;;;;;;6.51;44.57;99956.00;10366149;28;20135;-77
2023/03/11 16:08:39;;;;;;;2.70;0.73;;;;;;;6.97;43.26;99971.44;10338619;28;21201;-77
2023/03/11 16:13:42;;;;;;;3.85;1.30;;;;;;;7.19;45.93;99962.72;10363038;28;20053;-77
2023/03/11 16:18:45;;;;;;;6.30;1.17;;;;;;;6.57;45.85;99958.25;10370143;28;20045;-78
2023/03/11 16:23:49;;;;;;;2.10;0.90;;;;;;;6.30;46.14;99959.22;10352380;28;20048;-76
2023/03/11 16:28:54;;;;;;;3.03;1.05;;;;;;;6.11;44.34;99961.47;10362951;28;20195;-77
2023/03/11 16:33:56;;;;;;;5.18;0.88;;;;;;;5.20;44.69;99969.34;10338719;28;20517;-78
2023/03/11 16:39:01;;;;;;;4.47;0.80;;;;;;;4.42;44.71;99969.84;10365598;28;20149;-76
2023/03/11 16:44:06;;;;;;;2.50;0.73;;;;;;;4.13;45.63;99977.78;10375403;28;20096;-78
2023/03/11 16:49:11;;;;;;;1.63;0.75;;;;;;;3.90;47.79;99978.31;10359711;28;20129;-78
2023/03/11 16:54:15;;;;;;;4.13;1.00;;;;;;;3.91;47.66;99991.50;10343231;28;20148;-78
2023/03/11 16:59:18;;;;;;;2.25;0.90;;;;;;;3.54;47.76;99984.88;10361810;28;20080;-78
2023/03/11 17:04:21;;;;;;;6.97;0.98;;;;;;;3.54;48.72;99984.88;10362469;28;20058;-77
2023/03/11 17:09:25;;;;;;;2.75;1.05;;;;;;;3.55;49.69;99991.03;10364341;28;20045;-78
2023/03/11 17:14:28;;;;;;;4.22;1.30;;;;;;;3.50;49.18;99996.59;10367308;28;20042;-78
2023/03/11 17:19:31;;;;;;;6.35;2.28;;;;;;;3.45;49.05;100001.31;10351729;28;20077;-78
2023/03/11 17:24:36;;;;;;;5.03;2.67;;;;;;;3.42;48.77;100010.31;10354989;28;20547;-78
2023/03/11 17:29:38;;;;;;;3.85;1.35;;;;;;;3.32;48.83;100010.91;10366196;28;20144;-77
2023/03/11 17:34:41;;;;;;;2.15;1.23;;;;;;;3.23;48.84;100007.84;10375050;28;20080;-77
2023/03/11 17:39:45;;;;;;;2.80;1.50;;;;;;;3.13;49.20;100013.78;10357522;28;20056;-78
2023/03/11 17:44:49;;;;;;;1.80;1.25;;;;;;;3.08;49.63;100022.00;10318984;28;20048;-79
2023/03/11 17:49:54;;;;;;;3.30;1.30;;;;;;;2.96;49.55;100020.88;10364788;28;20050;-79
2023/03/11 17:54:58;;;;;;;5.15;1.50;;;;;;;2.81;48.85;100019.91;10366397;28;20057;-79
2023/03/11 18:00:04;;;;;;;5.47;2.00;;;;;;;2.78;48.96;100025.38;10364947;28;20056;-78
2023/03/11 18:05:08;;;;;;;3.83;1.77;;;;;;;2.67;49.03;100022.47;10343067;28;20068;-78
2023/03/11 18:10:14;;;;;;;7.57;2.17;;;;;;;2.59;48.67;100033.47;10366161;28;20112;-78
2023/03/11 18:15:18;;;;;;;6.75;2.00;;;;;;;2.52;48.64;100033.84;10355719;28;20065;-78
2023/03/11 18:20:21;;;;;;;5.20;2.20;;;;;;;2.52;48.58;100040.00;10363574;28;20058;-79
2023/03/11 18:25:25;;;;;;;4.82;2.17;;;;;;;2.47;48.95;100038.53;10360651;28;20120;-77
2023/03/11 18:30:28;;;;;;;23.00;9.57;;;;;;;2.37;48.96;100035.53;10358066;28;20052;-78
2023/03/11 18:35:31;;;;;;;8.90;3.70;;;;;;;2.30;49.36;100045.56;10362225;28;20041;-78
2023/03/11 18:40:35;;;;;;;6.75;3.90;;;;;;;2.28;49.53;100047.47;10351326;28;20140;-78
2023/03/11 18:45:38;;;;;;;7.82;3.03;;;;;;;2.15;49.48;100055.19;10362658;28;20053;-79
2023/03/11 18:50:41;;;;;;;7.18;3.67;;;;;;;2.13;50.08;100053.53;10341416;28;20050;-79
2023/03/11 18:55:45;;;;;;;10.68;4.18;;;;;;;2.05;50.52;100045.97;10350182;28;20049;-79
2023/03/11 19:00:48;;;;;;;9.10;3.92;;;;;;;2.01;50.35;100046.25;10364428;28;20045;-78
2023/03/11 19:05:51;;;;;;;6.88;4.60;;;;;;;2.01;51.21;100040.94;10352508;28;21870;-78
2023/03/11 19:10:56;;;;;;;17.02;4.97;;;;;;;1.91;52.02;100038.75;10358647;28;21211;-78
2023/03/11 19:15:59;;;;;;;5.90;3.78;;;;;;;1.82;51.98;100036.56;10342188;28;20064;-77
2023/03/11 19:21:05;;;;;;;9.07;4.10;;;;;;;1.89;52.02;100029.16;10361371;28;20068;-78
2023/03/11 19:26:09;;;;;;;11.68;6.00;;;;;;;1.70;53.30;100042.47;10350388;28;20056;-78
2023/03/11 19:31:12;;;;;;;11.60;5.38;;;;;;;1.70;53.50;100055.69;10376875;28;20087;-77
2023/03/11 19:36:15;;;;;;;8.93;4.63;;;;;;;1.68;53.54;100053.16;10334596;28;20137;-78
2023/03/11 19:41:21;;;;;;;9.60;5.00;;;;;;;1.67;53.56;100059.38;10358179;28;20045;-78
2023/03/11 19:46:24;;;;;;;10.45;4.45;;;;;;;1.63;53.58;100055.16;10360104;28;20125;-78
2023/03/11 19:51:27;;;;;;;9.52;4.60;;;;;;;1.59;53.63;100058.91;10347414;28;20123;-76
2023/03/11 19:56:46;;;;;;;10.48;4.32;;;;;;;1.55;53.97;100054.66;10359912;28;20057;-77
2023/03/11 20:01:49;;;;;;;11.73;4.07;;;;;;;1.55;54.59;100052.03;10362244;28;20046;-78
2023/03/11 20:06:52;;;;;;;14.65;4.68;;;;;;;1.49;54.41;100069.06;10361880;28;20049;-77
2023/03/11 20:11:56;;;;;;;10.30;4.78;;;;;;;1.41;54.51;100065.09;10356404;28;20095;-78
2023/03/11 20:16:59;;;;;;;7.65;4.55;;;;;;;1.35;54.15;100066.22;10360223;28;20057;-78
2023/03/11 20:22:02;;;;;;;9.13;4.85;;;;;;;1.25;54.69;100072.88;10340700;28;20144;-76
2023/03/11 20:27:06;;;;;;;16.13;5.35;;;;;;;1.24;54.95;100066.75;10364249;28;20771;-78
2023/03/11 20:32:09;;;;;;;17.05;5.60;;;;;;;1.23;54.95;100065.00;10353630;28;20643;-78
2023/03/11 20:37:12;;;;;;;10.52;5.40;;;;;;;1.21;54.78;100076.63;10360547;28;20046;-78
2023/03/11 20:42:16;;;;;;;13.90;4.72;;;;;;;1.14;55.29;100072.53;10380675;28;20527;-77
2023/03/11 20:47:19;;;;;;;7.25;4.97;;;;;;;1.09;55.35;100090.41;10348966;28;20042;-78
2023/03/11 20:52:22;;;;;;;12.20;5.13;;;;;;;1.15;55.21;100082.19;10371921;28;20050;-78
2023/03/11 20:57:27;;;;;;;16.90;5.85;;;;;;;1.14;54.98;100081.31;10360836;28;20050;-78
2023/03/11 21:02:32;;;;;;;11.55;4.35;;;;;;;1.17;55.12;100078.53;10356619;28;20058;-78
2023/03/11 21:07:35;;;;;;;13.55;5.63;;;;;;;1.16;55.48;100074.19;10364844;28;20046;-77
2023/03/11 21:12:39;;;;;;;11.65;6.82;;;;;;;1.09;55.78;100079.81;10348188;28;20046;-77
2023/03/11 21:17:42;;;;;;;16.20;6.68;;;;;;;1.00;56.12;100075.81;10361200;28;20706;-79
2023/03/11 21:22:45;;;;;;;14.73;6.18;;;;;;;0.91;55.83;100081.56;10358790;28;20054;-77
2023/03/11 21:27:50;;;;;;;10.95;5.75;;;;;;;1.03;55.55;100081.81;10357343;28;20496;-77
2023/03/11 21:32:53;;;;;;;14.75;6.15;;;;;;;1.04;55.66;100088.84;10370681;28;20692;-76
2023/03/11 21:37:56;;;;;;;12.77;5.88;;;;;;;1.02;55.94;100089.84;10367914;28;20156;-77
2023/03/11 21:43:00;;;;;;;10.05;5.50;;;;;;;0.92;55.94;100089.41;10354126;28;20405;-77
2023/03/11 21:48:05;;;;;;;17.17;6.63;;;;;;;0.91;55.78;100090.34;10358487;28;20133;-78
2023/03/11 21:53:09;;;;;;;15.10;6.70;;;;;;;0.95;55.84;100083.13;10351569;28;20061;-77
2023/03/11 21:58:13;;;;;;;13.35;6.75;;;;;;;0.95;56.04;100080.47;10353290;28;20052;-78
2023/03/11 22:03:16;;;;;;;11.43;7.15;;;;;;;0.89;56.77;100078.97;10359350;28;20049;-77
2023/03/11 22:08:19;;;;;;;15.95;8.15;;;;;;;0.76;57.12;100081.28;10340950;28;20065;-77
2023/03/11 22:13:24;;;;;;;12.25;6.93;;;;;;;0.71;56.98;100082.44;10360682;28;20058;-78
2023/03/11 22:18:27;;;;;;;10.77;6.45;;;;;;;0.77;56.58;100083.03;10356560;28;20049;-77
2023/03/11 22:23:30;;;;;;;14.60;6.55;;;;;;;0.74;56.40;100084.94;10344478;28;20053;-77
2023/03/11 22:28:34;;;;;;;12.25;6.03;;;;;;;0.69;56.08;100092.25;10356096;28;20045;-77
2023/03/11 22:33:37;;;;;;;10.73;5.70;;;;;;;0.74;56.33;100091.09;10351292;28;20038;-76
2023/03/11 22:38:42;;;;;;;12.93;5.85;;;;;;;0.79;55.87;100096.16;10343879;28;20497;-77
2023/03/11 22:43:47;;;;;;;9.70;5.10;;;;;;;0.80;56.07;100089.97;10353757;28;20177;-77
2023/03/11 22:48:50;;;;;;;11.23;5.97;;;;;;;0.68;56.21;100088.72;10330889;28;20124;-77
2023/03/11 22:53:52;;;;;;;9.13;5.82;;;;;;;0.53;56.33;100108.78;10376163;23;20153;-76
2023/03/11 22:58:57;;;;;;;10.48;5.05;;;;;;;0.58;55.86;100098.84;10356692;28;20062;-76
2023/03/11 23:04:00;;;;;;;8.85;4.75;;;;;;;0.72;55.44;100102.69;10349234;28;20049;-76
2023/03/11 23:09:03;;;;;;;10.95;4.43;;;;;;;0.68;55.53;100101.94;10345981;28;22374;-77
2023/03/11 23:14:08;;;;;;;10.23;4.28;;;;;;;0.79;55.03;100093.53;10351980;28;20507;-76
2023/03/11 23:19:11;;;;;;;9.52;4.60;;;;;;;0.71;55.21;100107.09;10352716;28;20065;-77
2023/03/11 23:24:13;;;;;;;4.88;3.88;;;;;;;0.60;55.52;100109.34;10351095;28;20061;-77
2023/03/11 23:29:18;;;;;;;7.40;3.88;;;;;;;0.61;55.54;100104.00;10360812;28;20120;-76
2023/03/11 23:34:20;;;;;;;11.40;4.50;;;;;;;0.63;55.56;100105.72;10362017;28;20041;-77
2023/03/11 23:39:23;;;;;;;7.82;4.82;;;;;;;0.63;55.90;100106.56;10357826;28;20066;-77
2023/03/11 23:44:28;;;;;;;9.35;4.70;;;;;;;0.55;55.89;100111.31;10358949;28;20160;-76